createdAt,value
2018-12-25T00:00:51.532Z,19.82
2018-12-25T00:03:28.370Z,7.50
2018-12-25T00:05:58.463Z,9.60
2018-12-25T00:08:28.560Z,10.18
2018-12-25T00:10:58.684Z,9.65
2018-12-25T00:13:30.924Z,5.50
2018-12-25T00:16:02.132Z,4.05
2018-12-25T00:18:31.972Z,5.87
2018-12-25T00:21:07.852Z,5.22
2018-12-25T00:23:39.753Z,3.67
2018-12-25T00:26:09.692Z,6.67
2018-12-25T00:28:40.443Z,4.72
2018-12-25T00:31:11.604Z,5.80
2018-12-25T00:33:43.602Z,3.70
2018-12-25T00:36:13.708Z,4.47
2018-12-25T00:38:43.520Z,5.55
2018-12-25T00:41:14.086Z,8.05
2018-12-25T00:43:43.804Z,6.72
2018-12-25T00:46:16.218Z,6.25
2018-12-25T00:48:48.193Z,6.95
2018-12-25T00:51:18.144Z,8.25
2018-12-25T00:53:55.996Z,9.00
2018-12-25T00:56:25.832Z,7.92
2018-12-25T00:58:56.716Z,7.97
2018-12-25T01:01:27.512Z,7.75
2018-12-25T01:04:08.188Z,8.73
2018-12-25T01:06:39.832Z,6.65
2018-12-25T01:09:11.772Z,10.40
2018-12-25T01:11:43.497Z,10.90
2018-12-25T01:14:13.197Z,8.25
2018-12-25T01:16:42.889Z,10.03
2018-12-25T01:19:13.910Z,11.20
2018-12-25T01:21:43.745Z,9.93
2018-12-25T01:24:13.675Z,9.28
2018-12-25T01:26:43.517Z,7.40
2018-12-25T01:29:13.317Z,11.75
2018-12-25T01:31:43.328Z,7.75
2018-12-25T01:34:17.366Z,7.42
2018-12-25T01:36:47.464Z,10.55
2018-12-25T01:39:17.593Z,10.05
2018-12-25T01:41:47.681Z,9.78
2018-12-25T01:44:17.760Z,10.50
2018-12-25T01:46:48.909Z,12.70
2018-12-25T01:49:21.026Z,8.35
2018-12-25T01:51:51.799Z,14.18
2018-12-25T01:54:21.772Z,11.12
2018-12-25T01:56:53.840Z,11.30
2018-12-25T01:59:24.714Z,10.55
2018-12-25T02:01:54.675Z,13.45
2018-12-25T02:04:26.340Z,12.25
2018-12-25T02:06:57.116Z,9.13
2018-12-25T02:09:27.992Z,10.68
2018-12-25T02:11:58.792Z,11.22
2018-12-25T02:14:28.745Z,14.33
2018-12-25T02:16:59.131Z,14.18
2018-12-25T02:19:28.964Z,11.53
2018-12-25T02:21:59.812Z,12.15
2018-12-25T02:24:29.641Z,12.28
2018-12-25T02:27:02.208Z,12.03
2018-12-25T02:29:32.940Z,10.30
2018-12-25T02:32:02.963Z,11.00
2018-12-25T02:34:34.004Z,9.88
2018-12-25T02:37:05.047Z,10.82
2018-12-25T02:39:34.885Z,10.95
2018-12-25T02:42:04.894Z,12.58
2018-12-25T02:44:35.009Z,11.10
2018-12-25T02:47:04.829Z,14.10
2018-12-25T02:49:34.521Z,11.55
2018-12-25T02:52:11.487Z,10.13
2018-12-25T02:54:51.747Z,11.85
2018-12-25T02:57:22.791Z,10.68
2018-12-25T02:59:54.085Z,7.92
2018-12-25T03:02:30.067Z,12.73
2018-12-25T03:04:59.889Z,9.43
2018-12-25T03:07:32.862Z,12.15
2018-12-25T03:10:03.220Z,13.10
2018-12-25T03:12:33.097Z,10.13
2018-12-25T03:15:03.050Z,11.38
2018-12-25T03:17:32.889Z,13.95
2018-12-25T03:20:02.879Z,17.62
2018-12-25T03:22:32.698Z,14.40
2018-12-25T03:25:04.802Z,15.93
2018-12-25T03:27:35.919Z,19.12
2018-12-25T03:30:07.070Z,16.95
2018-12-25T03:32:40.463Z,14.87
2018-12-25T03:35:12.733Z,9.60
2018-12-25T03:37:43.065Z,15.68
2018-12-25T03:40:15.050Z,14.80
2018-12-25T03:42:45.977Z,24.27
2018-12-25T03:45:16.019Z,16.10
2018-12-25T03:47:46.195Z,17.48
2018-12-25T03:50:18.979Z,12.70
2018-12-25T03:52:50.855Z,15.08
2018-12-25T03:55:20.681Z,15.93
2018-12-25T03:57:50.662Z,14.80
2018-12-25T04:00:20.761Z,14.65
2018-12-25T04:02:50.994Z,12.10
2018-12-25T04:05:21.061Z,17.92
2018-12-25T04:07:57.429Z,15.93
2018-12-25T04:10:27.698Z,12.03
2018-12-25T04:12:59.886Z,12.20
2018-12-25T04:15:31.069Z,16.57
2018-12-25T04:18:00.918Z,13.28
2018-12-25T04:20:30.867Z,13.35
2018-12-25T04:23:01.701Z,15.13
2018-12-25T04:25:31.393Z,13.60
2018-12-25T04:28:01.083Z,15.00
2018-12-25T04:30:36.734Z,12.15
2018-12-25T04:33:06.823Z,13.00
2018-12-25T04:35:36.649Z,14.53
2018-12-25T04:38:06.626Z,27.80
2018-12-25T04:40:37.446Z,11.83
2018-12-25T04:43:07.445Z,14.23
2018-12-25T04:45:40.135Z,13.00
2018-12-25T04:48:12.145Z,14.90
2018-12-25T04:50:43.353Z,16.30
2018-12-25T04:53:13.609Z,13.32
2018-12-25T04:55:45.297Z,14.28
2018-12-25T04:58:15.398Z,15.70
2018-12-25T05:00:54.407Z,10.53
2018-12-25T05:03:24.513Z,14.38
2018-12-25T05:05:54.341Z,17.52
2018-12-25T05:08:24.913Z,12.40
2018-12-25T05:10:55.808Z,14.30
2018-12-25T05:13:38.727Z,18.15
2018-12-25T05:16:08.847Z,14.23
2018-12-25T05:18:39.927Z,13.95
2018-12-25T05:21:11.025Z,13.45
2018-12-25T05:23:41.125Z,12.07
2018-12-25T05:26:11.227Z,15.35
2018-12-25T05:28:44.797Z,23.62
2018-12-25T05:31:14.867Z,14.65
2018-12-25T05:33:46.699Z,11.83
2018-12-25T05:36:16.651Z,11.00
2018-12-25T05:38:46.753Z,18.05
2018-12-25T05:41:17.573Z,15.53
2018-12-25T05:43:47.529Z,14.63
2018-12-25T05:46:17.617Z,13.98
2018-12-25T05:48:47.442Z,10.93
2018-12-25T05:51:19.065Z,13.55
2018-12-25T05:53:49.071Z,12.63
2018-12-25T05:56:18.909Z,14.35
2018-12-25T05:58:54.557Z,14.18
2018-12-25T06:01:24.345Z,10.88
2018-12-25T06:04:03.334Z,11.57
2018-12-25T06:06:34.114Z,13.65
2018-12-25T06:09:08.052Z,14.05
2018-12-25T06:11:39.107Z,13.98
2018-12-25T06:14:11.166Z,17.90
2018-12-25T06:16:41.253Z,18.60
2018-12-25T06:19:12.371Z,10.58
2018-12-25T06:21:42.218Z,15.00
2018-12-25T06:24:12.828Z,20.90
2018-12-25T06:26:45.505Z,15.88
2018-12-25T06:29:15.458Z,15.45
2018-12-25T06:31:45.552Z,11.70
2018-12-25T06:34:16.556Z,11.80
2018-12-25T06:36:48.190Z,14.45
2018-12-25T06:39:18.326Z,15.60
2018-12-25T06:41:49.332Z,13.58
2018-12-25T06:44:19.154Z,14.47
2018-12-25T06:46:49.834Z,13.88
2018-12-25T06:49:28.700Z,16.57
2018-12-25T06:52:07.739Z,12.45
2018-12-25T06:54:43.638Z,13.93
2018-12-25T06:57:13.474Z,16.30
2018-12-25T06:59:44.082Z,14.98
2018-12-25T07:02:14.037Z,17.57
2018-12-25T07:04:44.805Z,19.70
2018-12-25T07:07:14.726Z,15.88
2018-12-25T07:09:44.913Z,12.05
2018-12-25T07:12:16.893Z,11.15
2018-12-25T07:14:46.699Z,12.80
2018-12-25T07:17:16.653Z,10.68
2018-12-25T07:19:48.087Z,11.48
2018-12-25T07:22:19.203Z,15.60
2018-12-25T07:24:49.331Z,14.87
2018-12-25T07:27:23.436Z,11.43
2018-12-25T07:29:55.486Z,15.20
2018-12-25T07:32:26.527Z,10.10
2018-12-25T07:34:58.532Z,16.02
2018-12-25T07:37:28.385Z,14.35
2018-12-25T07:40:01.478Z,10.40
2018-12-25T07:42:32.467Z,13.68
2018-12-25T07:45:02.304Z,13.03
2018-12-25T07:47:32.276Z,13.28
2018-12-25T07:50:04.032Z,17.48
2018-12-25T07:52:36.105Z,12.40
2018-12-25T07:55:08.134Z,14.30
2018-12-25T07:57:42.210Z,21.85
2018-12-25T08:00:13.305Z,14.80
2018-12-25T08:02:43.128Z,17.48
2018-12-25T08:05:12.821Z,11.53
2018-12-25T08:07:42.592Z,11.22
2018-12-25T08:10:12.268Z,13.93
2018-12-25T08:12:41.976Z,10.23
2018-12-25T08:15:11.672Z,13.38
2018-12-25T08:17:42.520Z,16.42
2018-12-25T08:20:12.636Z,12.78
2018-12-25T08:22:42.464Z,8.10
2018-12-25T08:25:12.414Z,13.22
2018-12-25T08:27:42.247Z,14.00
2018-12-25T08:30:12.953Z,12.35
2018-12-25T08:32:44.545Z,14.07
2018-12-25T08:35:17.514Z,11.83
2018-12-25T08:37:47.356Z,10.23
2018-12-25T08:40:22.977Z,13.22
2018-12-25T08:42:58.843Z,20.62
2018-12-25T08:45:28.934Z,10.45
2018-12-25T08:47:58.775Z,16.12
2018-12-25T08:50:28.469Z,11.35
2018-12-25T08:52:58.402Z,12.85
2018-12-25T08:55:28.503Z,13.75
2018-12-25T08:57:59.205Z,9.50
2018-12-25T09:00:29.158Z,9.58
2018-12-25T09:02:58.993Z,12.85
2018-12-25T09:05:29.822Z,13.83
2018-12-25T09:07:59.940Z,12.75
2018-12-25T09:10:30.268Z,10.72
2018-12-25T09:13:00.345Z,11.15
2018-12-25T09:15:30.041Z,15.35
2018-12-25T09:18:01.913Z,13.30
2018-12-25T09:20:32.002Z,12.33
2018-12-25T09:23:03.517Z,10.40
2018-12-25T09:25:34.393Z,9.65
2018-12-25T09:28:04.362Z,13.80
2018-12-25T09:30:34.459Z,12.25
2018-12-25T09:33:04.621Z,12.65
2018-12-25T09:35:34.448Z,15.85
2018-12-25T09:38:04.401Z,12.50
2018-12-25T09:40:34.488Z,9.65
2018-12-25T09:43:04.563Z,11.50
2018-12-25T09:45:34.687Z,11.65
2018-12-25T09:48:04.533Z,10.68
2018-12-25T09:50:34.489Z,10.10
2018-12-25T09:53:04.835Z,10.53
2018-12-25T09:55:35.016Z,11.88
2018-12-25T09:58:10.893Z,11.45
2018-12-25T10:00:40.717Z,11.63
2018-12-25T10:03:11.533Z,11.83
2018-12-25T10:05:41.461Z,10.38
2018-12-25T10:08:11.437Z,10.00
2018-12-25T10:10:41.249Z,8.80
2018-12-25T10:13:11.189Z,8.65
2018-12-25T10:15:42.161Z,9.23
2018-12-25T10:18:12.586Z,10.05
2018-12-25T10:20:42.585Z,7.83
2018-12-25T10:23:23.414Z,10.18
2018-12-25T10:25:56.124Z,8.73
2018-12-25T10:28:25.918Z,8.75
2018-12-25T10:30:55.593Z,11.40
2018-12-25T10:33:25.619Z,9.05
2018-12-25T10:35:57.230Z,8.43
2018-12-25T10:38:27.327Z,10.68
2018-12-25T10:40:57.417Z,12.40
2018-12-25T10:43:27.513Z,6.65
2018-12-25T10:46:03.724Z,6.53
2018-12-25T10:48:35.691Z,9.88
2018-12-25T10:51:05.785Z,20.82
2018-12-25T10:53:35.870Z,11.10
2018-12-25T10:56:07.721Z,7.55
2018-12-25T10:58:37.819Z,8.30
2018-12-25T11:01:10.785Z,7.85
2018-12-25T11:03:40.533Z,9.30
2018-12-25T11:06:10.491Z,8.63
2018-12-25T11:08:41.490Z,8.53
2018-12-25T11:11:11.573Z,8.50
2018-12-25T11:13:44.073Z,9.30
2018-12-25T11:16:14.645Z,7.70
2018-12-25T11:18:49.020Z,8.18
2018-12-25T11:21:16.469Z,8.60
2018-12-25T11:23:46.563Z,12.63
2018-12-25T11:26:19.847Z,9.53
2018-12-25T11:28:50.006Z,6.85
2018-12-25T11:31:20.085Z,12.60
2018-12-25T11:33:53.169Z,7.83
2018-12-25T11:36:22.997Z,8.78
2018-12-25T11:38:55.097Z,6.45
2018-12-25T11:41:24.917Z,7.00
2018-12-25T11:43:55.751Z,8.93
2018-12-25T11:46:28.953Z,9.10
2018-12-25T11:48:58.872Z,7.90
2018-12-25T11:51:28.841Z,8.68
2018-12-25T11:53:58.685Z,9.68
2018-12-25T11:56:28.838Z,21.70
2018-12-25T11:59:01.958Z,20.17
2018-12-25T12:01:31.764Z,13.00
2018-12-25T12:04:04.819Z,10.65
2018-12-25T12:06:35.769Z,9.25
2018-12-25T12:09:07.105Z,9.85
2018-12-25T12:11:36.805Z,8.30
2018-12-25T12:14:06.764Z,10.70
2018-12-25T12:16:36.895Z,5.95
2018-12-25T12:19:07.067Z,16.67
2018-12-25T12:21:36.909Z,11.22
2018-12-25T12:24:11.933Z,14.55
2018-12-25T12:26:41.785Z,11.40
2018-12-25T12:29:11.477Z,16.80
2018-12-25T12:31:41.163Z,7.92
2018-12-25T12:34:12.017Z,6.40
2018-12-25T12:36:41.841Z,8.03
2018-12-25T12:39:12.577Z,6.20
2018-12-25T12:41:48.165Z,8.05
2018-12-25T12:44:18.107Z,7.97
2018-12-25T12:46:49.083Z,6.70
2018-12-25T12:49:19.173Z,4.92
2018-12-25T12:51:49.265Z,6.62
2018-12-25T12:54:19.353Z,5.45
2018-12-25T12:57:03.141Z,6.10
2018-12-25T12:59:39.767Z,7.95
2018-12-25T13:02:09.714Z,7.17
2018-12-25T13:04:40.718Z,8.20
2018-12-25T13:07:10.795Z,7.58
2018-12-25T13:09:40.613Z,12.10
2018-12-25T13:12:12.634Z,7.15
2018-12-25T13:14:50.909Z,6.15
2018-12-25T13:17:20.888Z,5.97
2018-12-25T13:19:50.978Z,9.88
2018-12-25T13:22:26.499Z,11.12
2018-12-25T13:25:01.175Z,17.35
2018-12-25T13:27:31.265Z,10.90
2018-12-25T13:30:01.390Z,9.70
2018-12-25T13:32:32.441Z,7.87
2018-12-25T13:35:05.790Z,5.45
2018-12-25T13:37:35.873Z,9.00
2018-12-25T13:40:07.025Z,8.80
2018-12-25T13:42:36.721Z,12.47
2018-12-25T13:45:06.737Z,11.68
2018-12-25T13:47:36.821Z,9.23
2018-12-25T13:50:13.733Z,16.45
2018-12-25T13:52:43.837Z,7.47
2018-12-25T13:55:13.653Z,4.90
2018-12-25T13:57:43.461Z,9.45
2018-12-25T14:00:13.413Z,10.10
2018-12-25T14:02:43.763Z,5.78
2018-12-25T14:05:19.162Z,8.98
2018-12-25T14:08:05.781Z,11.90
2018-12-25T14:10:45.305Z,8.05
2018-12-25T14:13:29.085Z,5.10
2018-12-25T14:16:04.898Z,7.20
2018-12-25T14:27:03.291Z,7.85
2018-12-25T14:29:36.444Z,5.47
2018-12-25T14:32:06.538Z,12.58
2018-12-25T14:34:40.544Z,7.60
2018-12-25T14:37:10.636Z,9.95
2018-12-25T14:39:40.714Z,6.80
2018-12-25T14:42:21.414Z,7.00
2018-12-25T14:44:51.541Z,5.80
2018-12-25T14:47:23.539Z,5.87
2018-12-25T14:50:09.098Z,7.05
2018-12-25T14:52:38.815Z,9.58
2018-12-25T14:55:08.595Z,9.23
2018-12-25T14:57:38.330Z,15.60
2018-12-25T15:00:11.208Z,6.53
2018-12-25T15:02:41.037Z,7.03
2018-12-25T15:05:10.722Z,9.20
2018-12-25T15:07:40.410Z,9.73
2018-12-25T15:10:10.182Z,10.88
2018-12-25T15:12:39.866Z,13.50
2018-12-25T15:15:12.914Z,10.30
2018-12-25T15:17:49.779Z,7.85
2018-12-25T15:20:19.665Z,9.00
2018-12-25T15:22:52.022Z,7.97
2018-12-25T15:25:28.032Z,6.22
2018-12-25T15:28:00.059Z,10.38
2018-12-25T15:30:30.206Z,9.73
2018-12-25T15:33:00.122Z,7.47
2018-12-25T15:35:29.766Z,7.90
2018-12-25T15:37:59.714Z,7.47
2018-12-25T15:40:29.811Z,13.13
2018-12-25T15:43:00.866Z,6.90
2018-12-25T15:45:31.020Z,6.95
2018-12-25T15:48:03.668Z,9.38
2018-12-25T15:50:33.859Z,5.25
2018-12-25T15:53:03.823Z,7.20
2018-12-25T15:55:34.138Z,9.20
2018-12-25T15:58:04.546Z,5.90
2018-12-25T16:00:40.696Z,8.20
2018-12-25T16:03:11.890Z,7.85
2018-12-25T16:05:41.642Z,11.20
2018-12-25T16:08:11.795Z,7.45
2018-12-25T16:10:42.498Z,6.05
2018-12-25T16:13:12.458Z,6.17
2018-12-25T16:15:45.150Z,8.73
2018-12-25T16:18:16.820Z,8.85
2018-12-25T16:20:46.786Z,6.40
2018-12-25T16:23:16.883Z,8.83
2018-12-25T16:25:47.015Z,10.30
2018-12-25T16:28:16.868Z,10.68
2018-12-25T16:30:46.832Z,10.80
2018-12-25T16:33:17.053Z,9.58
2018-12-25T16:35:46.946Z,10.65
2018-12-25T16:38:16.893Z,11.40
2018-12-25T16:40:53.739Z,8.15
2018-12-25T16:43:26.831Z,10.03
2018-12-25T16:45:57.867Z,12.05
2018-12-25T16:48:30.750Z,8.55
2018-12-25T16:51:01.688Z,21.45
2018-12-25T16:53:39.386Z,11.25
2018-12-25T16:56:09.070Z,10.43
2018-12-25T16:58:39.018Z,9.53
2018-12-25T17:01:08.839Z,12.03
2018-12-25T17:03:40.680Z,7.62
2018-12-25T17:06:10.791Z,8.18
2018-12-25T17:08:40.831Z,10.38
2018-12-25T17:11:14.589Z,9.50
2018-12-25T17:13:46.491Z,9.35
2018-12-25T17:16:16.594Z,8.20
2018-12-25T17:18:55.684Z,10.13
2018-12-25T17:21:25.755Z,8.33
2018-12-25T17:24:02.242Z,11.08
2018-12-25T17:26:27.841Z,8.20
2018-12-25T17:28:57.927Z,8.45
2018-12-25T17:31:34.032Z,10.03
2018-12-25T17:34:04.120Z,9.93
2018-12-25T17:36:35.184Z,12.37
2018-12-25T17:39:07.968Z,10.05
2018-12-25T17:41:38.945Z,9.83
2018-12-25T17:44:09.383Z,9.75
2018-12-25T17:46:39.175Z,9.28
2018-12-25T17:49:09.162Z,9.50
2018-12-25T17:51:39.265Z,10.72
2018-12-25T17:54:14.959Z,8.33
2018-12-25T17:57:01.867Z,12.68
2018-12-25T17:59:31.963Z,13.55
2018-12-25T18:02:01.791Z,13.48
2018-12-25T18:04:32.383Z,10.72
2018-12-25T18:07:05.371Z,14.73
2018-12-25T18:09:35.449Z,8.98
2018-12-25T18:12:05.669Z,11.45
2018-12-25T18:14:35.832Z,13.75
2018-12-25T18:17:06.136Z,11.15
2018-12-25T18:19:37.129Z,11.10
2018-12-25T18:22:07.227Z,9.88
2018-12-25T18:24:38.275Z,13.60
2018-12-25T18:27:17.299Z,12.78
2018-12-25T18:29:47.399Z,20.90
2018-12-25T18:32:17.501Z,23.38
2018-12-25T18:34:48.402Z,22.15
2018-12-25T18:37:18.480Z,15.38
2018-12-25T18:39:55.502Z,15.65
2018-12-25T18:42:32.328Z,21.42
2018-12-25T18:45:04.150Z,17.70
2018-12-25T18:47:35.227Z,17.02
2018-12-25T18:50:07.925Z,21.55
2018-12-25T18:52:37.756Z,26.60
2018-12-25T18:55:09.679Z,20.30
2018-12-25T18:57:39.571Z,38.38
2018-12-25T19:00:10.981Z,28.57
2018-12-25T19:02:40.827Z,25.57
2018-12-25T19:05:16.487Z,19.95
2018-12-25T19:07:50.532Z,17.57
2018-12-25T19:10:20.659Z,24.92
2018-12-25T19:12:50.751Z,21.57
2018-12-25T19:15:22.947Z,20.08
2018-12-25T19:17:54.283Z,28.45
2018-12-25T19:20:24.388Z,24.70
2018-12-25T19:22:54.571Z,17.73
2018-12-25T19:25:25.643Z,15.58
2018-12-25T19:28:01.199Z,13.48
2018-12-25T19:30:39.043Z,18.95
2018-12-25T19:33:11.095Z,19.52
2018-12-25T19:35:40.924Z,24.35
2018-12-25T19:38:10.880Z,20.45
2018-12-25T19:40:40.711Z,20.62
2018-12-25T19:43:10.657Z,13.32
2018-12-25T19:45:40.555Z,42.90
2018-12-25T19:48:11.458Z,44.80
2018-12-25T19:50:42.255Z,41.13
2018-12-25T19:53:12.205Z,14.90
2018-12-25T19:55:46.421Z,14.30
2018-12-25T19:58:18.332Z,13.93
2018-12-25T20:00:48.363Z,21.62
2018-12-25T20:03:18.629Z,14.75
2018-12-25T20:06:06.374Z,15.48
2018-12-25T20:08:50.816Z,13.35
2018-12-25T20:11:47.646Z,14.28
2018-12-25T20:14:46.580Z,14.73
2018-12-25T20:18:00.462Z,14.90
2018-12-25T20:20:59.237Z,17.55
2018-12-25T20:23:39.914Z,23.15
2018-12-25T20:26:29.456Z,23.52
2018-12-25T20:29:05.175Z,24.07
2018-12-25T20:32:09.436Z,31.68
2018-12-25T20:34:54.130Z,14.10
2018-12-25T20:37:56.414Z,19.17
2018-12-25T20:40:45.775Z,15.13
2018-12-25T20:43:47.292Z,18.23
2018-12-25T20:46:44.121Z,12.07
2018-12-25T20:49:47.261Z,13.48
2018-12-25T20:52:20.184Z,16.77
2018-12-25T20:55:23.292Z,12.37
2018-12-25T20:58:02.174Z,10.00
2018-12-25T21:01:06.374Z,10.15
2018-12-25T21:04:07.948Z,12.82
2018-12-25T21:07:11.202Z,13.03
2018-12-25T21:10:33.386Z,23.38
2018-12-25T21:13:42.161Z,23.07
2018-12-25T21:16:31.864Z,14.68
2018-12-25T21:19:15.020Z,18.02
2018-12-25T21:22:29.217Z,13.32
2018-12-25T21:25:52.822Z,13.85
2018-12-25T21:28:32.928Z,12.75
2018-12-25T21:31:05.982Z,13.05
2018-12-25T21:33:35.884Z,11.95
2018-12-25T21:36:07.082Z,13.60
2018-12-25T21:38:38.559Z,11.33
2018-12-25T21:41:10.156Z,16.10
2018-12-25T21:43:39.940Z,12.37
2018-12-25T21:46:19.108Z,14.28
2018-12-25T21:48:59.164Z,16.85
2018-12-25T21:51:29.708Z,13.58
2018-12-25T21:54:00.082Z,11.22
2018-12-25T21:56:31.000Z,15.83
2018-12-25T21:59:01.342Z,16.95
2018-12-25T22:01:31.421Z,13.58
2018-12-25T22:04:03.822Z,13.48
2018-12-25T22:06:33.926Z,27.02
2018-12-25T22:09:06.013Z,16.75
2018-12-25T22:11:35.928Z,12.78
2018-12-25T22:14:11.961Z,13.22
2018-12-25T22:16:48.162Z,15.78
2018-12-25T22:19:19.024Z,14.80
2018-12-25T22:21:49.138Z,13.35
2018-12-25T22:24:19.388Z,16.73
2018-12-25T22:26:49.585Z,17.05
2018-12-25T22:29:19.680Z,12.53
2018-12-25T22:31:52.458Z,15.25
2018-12-25T22:34:23.484Z,13.80
2018-12-25T22:36:53.196Z,13.03
2018-12-25T22:39:23.276Z,11.55
2018-12-25T22:41:53.230Z,14.47
2018-12-25T22:44:23.624Z,17.25
2018-12-25T22:46:53.424Z,10.80
2018-12-25T22:49:23.474Z,10.85
2018-12-25T22:51:53.665Z,12.00
2018-12-25T22:54:25.804Z,11.97
2018-12-25T22:56:56.300Z,11.33
2018-12-25T22:59:26.120Z,12.47
2018-12-25T23:01:57.220Z,11.73
2018-12-25T23:04:28.940Z,12.45
2018-12-25T23:07:02.185Z,10.80
2018-12-25T23:09:32.301Z,14.90
2018-12-25T23:12:02.611Z,18.95
2018-12-25T23:14:32.956Z,21.77
2018-12-25T23:17:05.773Z,20.25
2018-12-25T23:19:37.742Z,13.58
2018-12-25T23:22:07.852Z,16.25
2018-12-25T23:24:38.253Z,14.20
2018-12-25T23:27:08.277Z,13.22
2018-12-25T23:29:44.116Z,14.28
2018-12-25T23:32:16.689Z,15.40
2018-12-25T23:34:46.838Z,15.58
2018-12-25T23:37:16.744Z,16.70
2018-12-25T23:39:46.715Z,17.00
2018-12-25T23:42:16.808Z,18.10
2018-12-25T23:44:50.100Z,16.23
2018-12-25T23:47:24.342Z,23.20
2018-12-25T23:49:55.458Z,24.00
2018-12-25T23:52:25.320Z,19.82
2018-12-25T23:54:55.952Z,17.37
2018-12-25T23:57:25.652Z,15.83
2018-12-25T23:59:55.483Z,17.42
